createdAt,value
2018-04-18T00:00:31.173Z,22.70
2018-04-18T00:01:31.174Z,23.90
2018-04-18T00:02:31.167Z,25.60
2018-04-18T00:03:31.165Z,22.20
2018-04-18T00:04:31.161Z,23.90
2018-04-18T00:05:31.162Z,25.00
2018-04-18T00:06:31.159Z,24.90
2018-04-18T00:07:31.151Z,25.60
2018-04-18T00:08:31.150Z,24.20
2018-04-18T00:09:31.146Z,24.80
2018-04-18T00:10:31.142Z,24.30
2018-04-18T00:11:31.139Z,23.30
2018-04-18T00:12:31.136Z,25.40
2018-04-18T00:13:31.133Z,24.30
2018-04-18T00:14:31.130Z,23.20
2018-04-18T00:15:31.128Z,23.80
2018-04-18T00:16:31.125Z,24.40
2018-04-18T00:17:31.124Z,22.00
2018-04-18T00:18:31.121Z,25.60
2018-04-18T00:19:31.114Z,25.70
2018-04-18T00:20:31.112Z,24.40
2018-04-18T00:21:31.106Z,23.60
2018-04-18T00:22:31.104Z,24.80
2018-04-18T00:23:31.104Z,25.70
2018-04-18T00:24:31.102Z,24.10
2018-04-18T00:25:31.095Z,23.40
2018-04-18T00:26:31.091Z,25.00
2018-04-18T00:27:31.089Z,23.30
2018-04-18T00:28:31.086Z,24.40
2018-04-18T00:29:31.081Z,25.70
2018-04-18T00:30:31.077Z,24.90
2018-04-18T00:31:31.076Z,25.00
2018-04-18T00:32:31.071Z,24.50
2018-04-18T00:33:31.068Z,24.40
2018-04-18T00:34:31.063Z,25.20
2018-04-18T00:35:31.064Z,23.60
2018-04-18T00:36:31.061Z,25.20
2018-04-18T00:37:31.057Z,25.60
2018-04-18T00:38:31.054Z,23.90
2018-04-18T00:39:31.047Z,24.60
2018-04-18T00:40:31.044Z,26.20
2018-04-18T00:41:31.041Z,24.10
2018-04-18T00:42:31.037Z,24.70
2018-04-18T00:43:31.037Z,24.00
2018-04-18T00:44:31.031Z,25.90
2018-04-18T00:45:31.033Z,25.20
2018-04-18T00:46:31.029Z,25.90
2018-04-18T00:47:31.019Z,24.60
2018-04-18T00:48:31.017Z,26.50
2018-04-18T00:49:31.020Z,25.80
2018-04-18T00:50:31.014Z,25.40
2018-04-18T00:51:31.004Z,23.20
2018-04-18T00:52:31.004Z,24.50
2018-04-18T00:53:30.998Z,25.90
2018-04-18T00:54:30.995Z,24.70
2018-04-18T00:55:30.994Z,28.10
2018-04-18T00:56:30.990Z,28.40
2018-04-18T00:57:30.983Z,26.30
2018-04-18T00:58:30.979Z,27.30
2018-04-18T00:59:30.975Z,26.80
2018-04-18T01:00:30.972Z,25.50
2018-04-18T01:01:30.969Z,25.40
2018-04-18T01:02:30.964Z,25.70
2018-04-18T01:03:30.961Z,27.40
2018-04-18T01:04:30.958Z,29.20
2018-04-18T01:05:30.953Z,27.20
2018-04-18T01:06:30.948Z,26.80
2018-04-18T01:07:30.949Z,28.10
2018-04-18T01:08:30.947Z,29.50
2018-04-18T01:09:30.937Z,26.80
2018-04-18T01:10:30.933Z,28.60
2018-04-18T01:11:30.933Z,26.70
2018-04-18T01:12:30.926Z,25.80
2018-04-18T01:13:30.921Z,26.10
2018-04-18T01:14:30.918Z,26.10
2018-04-18T01:15:30.917Z,26.20
2018-04-18T01:16:30.914Z,24.50
2018-04-18T01:17:30.906Z,25.10
2018-04-18T01:18:30.901Z,26.20
2018-04-18T01:19:30.902Z,26.70
2018-04-18T01:20:30.897Z,25.20
2018-04-18T01:21:30.889Z,25.50
2018-04-18T01:22:30.890Z,25.70
2018-04-18T01:23:30.881Z,24.60
2018-04-18T01:24:30.879Z,23.90
2018-04-18T01:25:30.876Z,25.50
2018-04-18T01:26:30.870Z,25.50
2018-04-18T01:27:30.865Z,25.00
2018-04-18T01:28:30.863Z,26.40
2018-04-18T01:29:30.861Z,26.50
2018-04-18T01:30:30.857Z,27.10
2018-04-18T01:31:30.850Z,25.80
2018-04-18T01:32:30.845Z,25.30
2018-04-18T01:33:30.844Z,26.80
2018-04-18T01:34:30.840Z,25.90
2018-04-18T01:35:30.832Z,27.00
2018-04-18T01:36:30.833Z,27.80
2018-04-18T01:37:30.824Z,25.00
2018-04-18T01:38:30.821Z,26.50
2018-04-18T01:39:30.816Z,24.70
2018-04-18T01:40:30.812Z,24.60
2018-04-18T01:41:30.807Z,24.60
2018-04-18T01:42:30.804Z,24.10
2018-04-18T01:43:30.801Z,26.30
2018-04-18T01:44:30.797Z,24.90
2018-04-18T01:45:30.791Z,26.80
2018-04-18T01:46:30.787Z,23.60
2018-04-18T01:47:30.787Z,23.50
2018-04-18T01:48:30.783Z,22.30
2018-04-18T01:49:30.775Z,22.80
2018-04-18T01:50:30.772Z,24.60
2018-04-18T01:51:30.776Z,25.70
2018-04-18T01:52:30.767Z,24.40
2018-04-18T01:53:30.759Z,25.60
2018-04-18T01:54:30.755Z,24.10
2018-04-18T01:55:30.753Z,24.20
2018-04-18T01:56:30.749Z,22.70
2018-04-18T01:57:30.744Z,23.60
2018-04-18T01:58:30.740Z,25.30
2018-04-18T01:59:30.738Z,25.70
2018-04-18T02:00:30.731Z,24.90
2018-04-18T02:01:30.731Z,24.30
2018-04-18T02:02:30.732Z,25.00
2018-04-18T02:03:30.725Z,24.80
2018-04-18T02:04:30.716Z,25.30
2018-04-18T02:05:30.714Z,23.30
2018-04-18T02:06:30.714Z,24.60
2018-04-18T02:07:30.709Z,24.50
2018-04-18T02:08:30.698Z,23.10
2018-04-18T02:09:30.696Z,24.80
2018-04-18T02:10:30.691Z,22.60
2018-04-18T02:11:30.688Z,22.00
2018-04-18T02:12:30.684Z,22.80
2018-04-18T02:13:30.677Z,22.80
2018-04-18T02:14:30.672Z,23.90
2018-04-18T02:15:30.668Z,22.70
2018-04-18T02:16:30.666Z,22.80
2018-04-18T02:17:30.659Z,23.00
2018-04-18T02:18:30.655Z,22.10
2018-04-18T02:19:30.654Z,23.30
2018-04-18T02:20:30.651Z,23.90
2018-04-18T02:21:30.644Z,21.40
2018-04-18T02:22:30.637Z,21.20
2018-04-18T02:23:30.639Z,22.20
2018-04-18T02:24:30.634Z,20.20
2018-04-18T02:25:30.625Z,20.80
2018-04-18T02:26:30.620Z,20.30
2018-04-18T02:27:30.618Z,21.40
2018-04-18T02:28:30.612Z,21.50
2018-04-18T02:29:30.607Z,20.80
2018-04-18T02:30:30.606Z,19.50
2018-04-18T02:31:30.600Z,20.70
2018-04-18T02:32:30.596Z,19.80
2018-04-18T02:33:30.594Z,20.10
2018-04-18T02:34:30.590Z,19.10
2018-04-18T02:35:30.581Z,19.10
2018-04-18T02:36:30.577Z,18.90
2018-04-18T02:37:30.576Z,19.70
2018-04-18T02:38:30.572Z,21.00
2018-04-18T02:39:30.564Z,19.50
2018-04-18T02:40:30.559Z,22.80
2018-04-18T02:41:30.556Z,22.60
2018-04-18T02:42:30.551Z,20.90
2018-04-18T02:43:30.546Z,22.40
2018-04-18T02:44:30.542Z,21.20
2018-04-18T02:45:30.536Z,22.00
2018-04-18T02:46:30.542Z,22.40
2018-04-18T02:47:30.529Z,22.70
2018-04-18T02:48:30.523Z,22.40
2018-04-18T02:49:30.518Z,22.60
2018-04-18T02:50:30.515Z,23.30
2018-04-18T02:51:30.514Z,24.10
2018-04-18T02:52:30.511Z,22.30
2018-04-18T02:53:30.508Z,22.20
2018-04-18T02:54:30.495Z,23.90
2018-04-18T02:55:30.495Z,23.00
2018-04-18T02:56:30.492Z,22.60
2018-04-18T02:57:30.482Z,22.20
2018-04-18T02:58:30.477Z,21.10
2018-04-18T02:59:30.474Z,21.80
2018-04-18T03:00:30.470Z,21.60
2018-04-18T03:01:30.465Z,20.40
2018-04-18T03:02:30.460Z,22.70
2018-04-18T03:03:30.456Z,21.60
2018-04-18T03:04:30.452Z,21.30
2018-04-18T03:05:30.449Z,21.80
2018-04-18T03:06:30.445Z,21.90
2018-04-18T03:07:30.438Z,20.90
2018-04-18T03:08:30.432Z,20.50
2018-04-18T03:09:30.430Z,20.40
2018-04-18T03:10:30.425Z,20.60
2018-04-18T03:11:30.417Z,21.90
2018-04-18T03:12:30.413Z,21.10
2018-04-18T03:13:30.408Z,19.00
2018-04-18T03:14:30.403Z,19.00
2018-04-18T03:15:30.399Z,21.60
2018-04-18T03:16:30.394Z,20.30
2018-04-18T03:17:30.433Z,21.20
2018-04-18T03:18:30.388Z,20.40
2018-04-18T03:19:30.382Z,19.00
2018-04-18T03:20:30.375Z,19.40
2018-04-18T03:21:30.369Z,19.00
2018-04-18T03:22:30.366Z,19.20
2018-04-18T03:23:30.360Z,19.00
2018-04-18T03:24:30.356Z,19.90
2018-04-18T03:25:30.351Z,19.00
2018-04-18T03:26:30.392Z,19.90
2018-04-18T03:27:30.342Z,19.60
2018-04-18T03:28:30.338Z,20.40
2018-04-18T03:29:30.336Z,20.80
2018-04-18T03:30:30.331Z,19.90
2018-04-18T03:31:30.323Z,18.90
2018-04-18T03:32:30.318Z,18.20
2018-04-18T03:33:30.313Z,18.00
2018-04-18T03:34:30.311Z,19.50
2018-04-18T03:35:30.311Z,19.70
2018-04-18T03:36:30.304Z,19.10
2018-04-18T03:37:30.293Z,18.80
2018-04-18T03:38:30.290Z,19.40
2018-04-18T03:39:30.290Z,19.30
2018-04-18T03:40:30.279Z,18.60
2018-04-18T03:41:30.273Z,18.90
2018-04-18T03:42:30.269Z,18.20
2018-04-18T03:43:30.266Z,19.10
2018-04-18T03:44:30.261Z,19.10
2018-04-18T03:45:30.253Z,18.30
2018-04-18T03:46:30.249Z,17.40
2018-04-18T03:47:30.257Z,17.50
2018-04-18T03:48:30.244Z,18.50
2018-04-18T03:49:30.239Z,16.30
2018-04-18T03:50:30.233Z,15.30
2018-04-18T03:51:30.225Z,17.10
2018-04-18T03:52:30.219Z,18.20
2018-04-18T03:53:30.213Z,17.20
2018-04-18T03:54:30.208Z,18.30
2018-04-18T03:55:30.205Z,16.50
2018-04-18T03:56:30.199Z,17.90
2018-04-18T03:57:30.193Z,18.00
2018-04-18T03:58:30.192Z,16.40
2018-04-18T03:59:30.184Z,17.00
2018-04-18T04:00:30.179Z,17.30
2018-04-18T04:01:30.178Z,17.50
2018-04-18T04:02:30.248Z,19.10
2018-04-18T04:03:30.164Z,16.80
2018-04-18T04:04:30.159Z,17.80
2018-04-18T04:05:30.153Z,18.50
2018-04-18T04:06:30.150Z,17.70
2018-04-18T04:07:30.149Z,18.60
2018-04-18T04:08:30.144Z,16.80
2018-04-18T04:09:30.135Z,17.40
2018-04-18T04:10:30.143Z,17.30
2018-04-18T04:11:30.125Z,15.80
2018-04-18T04:12:30.119Z,17.30
2018-04-18T04:13:30.113Z,17.30
2018-04-18T04:14:30.109Z,16.50
2018-04-18T04:15:30.105Z,16.50
2018-04-18T04:16:30.101Z,16.10
2018-04-18T04:17:30.094Z,17.10
2018-04-18T04:18:30.092Z,15.70
2018-04-18T04:19:30.088Z,18.00
2018-04-18T04:20:30.086Z,16.60
2018-04-18T04:21:30.080Z,16.40
2018-04-18T04:22:30.071Z,16.30
2018-04-18T04:23:30.064Z,15.70
2018-04-18T04:24:30.060Z,16.40
2018-04-18T04:25:30.055Z,15.50
2018-04-18T04:26:30.049Z,14.00
2018-04-18T04:27:30.048Z,15.40
2018-04-18T04:28:30.043Z,16.60
2018-04-18T04:29:30.034Z,15.50
2018-04-18T04:30:30.029Z,15.70
2018-04-18T04:31:30.063Z,15.50
2018-04-18T04:32:30.023Z,15.00
2018-04-18T04:33:30.013Z,14.70
2018-04-18T04:34:30.016Z,14.80
2018-04-18T04:35:30.003Z,16.80
2018-04-18T04:36:29.999Z,14.90
2018-04-18T04:37:29.993Z,15.50
2018-04-18T04:38:29.993Z,14.80
2018-04-18T04:39:29.986Z,14.10
2018-04-18T04:40:29.979Z,14.30
2018-04-18T04:41:29.983Z,14.10
2018-04-18T04:42:29.976Z,15.10
2018-04-18T04:43:29.964Z,14.40
2018-04-18T04:44:29.960Z,14.80
2018-04-18T04:45:29.957Z,13.80
2018-04-18T04:46:29.952Z,14.70
2018-04-18T04:47:29.944Z,14.60
2018-04-18T04:48:29.938Z,13.70
2018-04-18T04:49:29.932Z,13.50
2018-04-18T04:50:29.927Z,13.40
2018-04-18T04:51:29.924Z,13.60
2018-04-18T04:52:29.920Z,15.30
2018-04-18T04:53:29.912Z,14.50
2018-04-18T04:54:29.908Z,13.50
2018-04-18T04:55:29.904Z,14.10
2018-04-18T04:56:29.951Z,13.80
2018-04-18T04:57:29.893Z,14.30
2018-04-18T04:58:29.887Z,13.10
2018-04-18T04:59:29.888Z,12.90
2018-04-18T05:00:29.883Z,14.80
2018-04-18T05:01:29.874Z,14.40
2018-04-18T05:02:29.917Z,13.20
2018-04-18T05:03:29.867Z,13.80
2018-04-18T05:04:29.863Z,14.40
2018-04-18T05:05:29.855Z,13.00
2018-04-18T05:06:29.849Z,14.70
2018-04-18T05:07:29.844Z,16.10
2018-04-18T05:08:29.839Z,17.60
2018-04-18T05:09:29.834Z,16.90
2018-04-18T05:10:29.829Z,18.90
2018-04-18T05:11:29.825Z,17.10
2018-04-18T05:12:29.822Z,17.50
2018-04-18T05:13:29.820Z,19.70
2018-04-18T05:14:29.822Z,20.80
2018-04-18T05:15:29.809Z,21.40
2018-04-18T05:16:29.804Z,19.10
2018-04-18T05:17:29.804Z,22.00
2018-04-18T05:18:29.801Z,22.10
2018-04-18T05:19:29.795Z,23.70
2018-04-18T05:20:29.790Z,23.20
2018-04-18T05:21:29.784Z,23.90
2018-04-18T05:22:29.783Z,23.80
2018-04-18T05:23:29.778Z,25.20
2018-04-18T05:24:29.785Z,26.20
2018-04-18T05:25:29.776Z,26.10
2018-04-18T05:26:29.774Z,22.60
2018-04-18T05:27:29.768Z,20.00
2018-04-18T05:28:29.765Z,31.40
2018-04-18T05:29:29.765Z,51.80
2018-04-18T05:30:29.763Z,161.90
2018-04-18T05:31:29.760Z,382.30
2018-04-18T05:32:29.758Z,568.20
2018-04-18T05:33:29.756Z,610.90
2018-04-18T05:34:29.755Z,481.10
2018-04-18T05:35:29.753Z,394.90
2018-04-18T05:36:29.753Z,438.50
2018-04-18T05:37:29.755Z,438.90
2018-04-18T05:38:29.755Z,238.10
2018-04-18T05:39:29.750Z,58.80
2018-04-18T05:40:29.751Z,19.60
2018-04-18T05:41:29.749Z,15.40
2018-04-18T05:42:29.748Z,14.90
2018-04-18T05:43:29.752Z,15.30
2018-04-18T05:44:29.752Z,14.90
2018-04-18T05:45:29.748Z,15.20
2018-04-18T05:46:29.749Z,14.90
2018-04-18T05:47:29.751Z,14.60
2018-04-18T05:48:29.751Z,15.20
2018-04-18T05:49:29.753Z,16.30
2018-04-18T05:50:29.752Z,15.60
2018-04-18T05:51:29.755Z,15.30
2018-04-18T05:52:29.757Z,14.70
2018-04-18T05:53:29.756Z,15.10
2018-04-18T05:54:29.758Z,15.60
2018-04-18T05:55:29.765Z,15.00
2018-04-18T05:56:29.767Z,14.60
2018-04-18T05:57:29.768Z,13.50
2018-04-18T05:58:29.771Z,14.40
2018-04-18T05:59:29.770Z,14.30
2018-04-18T06:00:29.773Z,14.50
2018-04-18T06:01:29.775Z,13.80
2018-04-18T06:02:29.781Z,13.80
2018-04-18T06:03:29.783Z,13.90
2018-04-18T06:04:29.786Z,14.20
2018-04-18T06:05:29.788Z,13.50
2018-04-18T06:06:29.791Z,13.20
2018-04-18T06:07:29.797Z,13.40
2018-04-18T06:08:29.800Z,13.00
2018-04-18T06:09:29.807Z,13.00
2018-04-18T06:10:29.812Z,12.30
2018-04-18T06:11:29.812Z,12.60
2018-04-18T06:12:29.816Z,13.10
2018-04-18T06:13:29.820Z,12.60
2018-04-18T06:14:29.825Z,12.50
2018-04-18T06:15:29.835Z,12.50
2018-04-18T06:16:29.839Z,12.80
2018-04-18T06:17:29.840Z,12.60
2018-04-18T06:18:29.846Z,12.20
2018-04-18T06:19:29.851Z,12.20
2018-04-18T06:20:29.856Z,12.10
2018-04-18T06:21:29.861Z,12.30
2018-04-18T06:22:29.867Z,12.00
2018-04-18T06:23:29.872Z,11.10
2018-04-18T06:24:29.880Z,11.50
2018-04-18T06:25:29.884Z,11.20
2018-04-18T06:26:29.891Z,11.60
2018-04-18T06:27:29.900Z,11.30
2018-04-18T06:28:29.908Z,11.80
2018-04-18T06:29:29.909Z,11.30
2018-04-18T06:30:29.915Z,11.30
2018-04-18T06:31:29.922Z,11.50
2018-04-18T06:32:29.928Z,11.50
2018-04-18T06:33:29.940Z,11.50
2018-04-18T06:34:29.946Z,11.10
2018-04-18T06:35:29.949Z,11.50
2018-04-18T06:36:29.957Z,11.60
2018-04-18T06:37:29.966Z,11.90
2018-04-18T06:38:29.975Z,11.70
2018-04-18T06:39:29.982Z,11.10
2018-04-18T06:40:29.985Z,11.10
2018-04-18T06:41:29.993Z,10.90
2018-04-18T06:42:30.002Z,10.60
2018-04-18T06:43:30.010Z,11.10
2018-04-18T06:44:30.022Z,10.60
2018-04-18T06:45:30.026Z,10.20
2018-04-18T06:46:30.033Z,10.50
2018-04-18T06:47:30.042Z,10.50
2018-04-18T06:48:30.050Z,10.00
2018-04-18T06:49:30.057Z,10.60
2018-04-18T06:50:30.071Z,10.10
2018-04-18T06:51:30.080Z,10.50
2018-04-18T06:52:30.090Z,10.00
2018-04-18T06:53:30.095Z,10.10
2018-04-18T06:54:30.104Z,9.80
2018-04-18T06:55:30.117Z,9.60
2018-04-18T06:56:30.127Z,10.70
2018-04-18T06:57:30.132Z,9.90
2018-04-18T06:58:30.142Z,10.00
2018-04-18T06:59:30.151Z,10.60
2018-04-18T07:00:30.163Z,9.40
2018-04-18T07:01:30.171Z,8.80
2018-04-18T07:02:30.183Z,8.60
2018-04-18T07:03:30.193Z,9.70
2018-04-18T07:04:30.202Z,8.90
2018-04-18T07:05:30.216Z,8.70
2018-04-18T07:06:30.232Z,8.90
2018-04-18T07:07:30.235Z,8.00
2018-04-18T07:08:30.248Z,8.10
2018-04-18T07:09:30.259Z,8.60
2018-04-18T07:10:30.269Z,8.20
2018-04-18T07:11:30.276Z,7.40
2018-04-18T07:12:30.288Z,8.50
2018-04-18T07:13:30.298Z,8.40
2018-04-18T07:14:30.312Z,7.60
2018-04-18T07:15:30.320Z,8.80
2018-04-18T07:16:30.332Z,8.40
2018-04-18T07:17:30.344Z,7.80
2018-04-18T07:18:30.354Z,7.70
2018-04-18T07:19:30.367Z,9.50
2018-04-18T07:20:30.379Z,7.90
2018-04-18T07:21:30.388Z,7.70
2018-04-18T07:22:30.401Z,8.50
2018-04-18T07:23:30.416Z,8.70
2018-04-18T07:24:30.430Z,8.80
2018-04-18T07:25:30.435Z,7.90
2018-04-18T07:26:30.447Z,7.40
2018-04-18T07:27:30.464Z,8.30
2018-04-18T07:28:30.477Z,7.30
2018-04-18T07:29:30.483Z,7.50
2018-04-18T07:30:30.500Z,7.20
2018-04-18T07:31:30.507Z,7.60
2018-04-18T07:32:30.520Z,6.80
2018-04-18T07:33:30.532Z,7.00
2018-04-18T07:34:30.545Z,7.60
2018-04-18T07:35:30.561Z,7.30
2018-04-18T07:36:30.575Z,7.20
2018-04-18T07:37:30.582Z,7.90
2018-04-18T07:38:30.595Z,6.70
2018-04-18T07:39:30.609Z,7.30
2018-04-18T07:40:30.623Z,7.10
2018-04-18T07:41:30.639Z,7.50
2018-04-18T07:42:30.652Z,7.40
2018-04-18T07:43:30.663Z,7.40
2018-04-18T07:44:30.676Z,7.20
2018-04-18T07:45:30.689Z,6.50
2018-04-18T07:46:30.703Z,6.00
2018-04-18T07:47:30.721Z,7.10
2018-04-18T07:48:30.736Z,6.20
2018-04-18T07:49:30.749Z,5.80
2018-04-18T07:50:30.765Z,6.10
2018-04-18T07:51:30.774Z,6.70
2018-04-18T07:52:30.790Z,7.10
2018-04-18T07:53:30.803Z,6.50
2018-04-18T07:54:30.818Z,7.70
2018-04-18T07:55:30.834Z,7.80
2018-04-18T07:56:30.849Z,7.40
2018-04-18T07:57:30.863Z,8.10
2018-04-18T07:58:30.877Z,7.40
2018-04-18T07:59:30.893Z,7.80
2018-04-18T08:00:30.909Z,8.50
2018-04-18T08:01:30.927Z,7.50
2018-04-18T08:02:30.943Z,7.50
2018-04-18T08:03:30.956Z,8.10
2018-04-18T08:04:30.971Z,8.10
2018-04-18T08:05:30.985Z,7.60
2018-04-18T08:06:31.001Z,7.40
2018-04-18T08:07:31.022Z,6.30
2018-04-18T08:08:31.070Z,7.20
2018-04-18T08:09:31.050Z,7.50
2018-04-18T08:10:31.067Z,7.10
2018-04-18T08:11:31.081Z,7.60
2018-04-18T08:12:31.099Z,8.00
2018-04-18T08:13:31.114Z,7.40
2018-04-18T08:14:31.130Z,7.20
2018-04-18T08:15:31.203Z,6.80
2018-04-18T08:16:31.165Z,7.70
2018-04-18T08:17:31.180Z,9.10
2018-04-18T08:18:31.197Z,8.70
2018-04-18T08:19:31.219Z,8.70
2018-04-18T08:20:31.235Z,7.80
2018-04-18T08:21:31.252Z,7.40
2018-04-18T08:22:31.268Z,7.00
2018-04-18T08:23:31.281Z,7.50
2018-04-18T08:24:31.298Z,8.20
2018-04-18T08:25:31.315Z,8.30
2018-04-18T08:26:31.333Z,7.20
2018-04-18T08:27:31.350Z,7.70
2018-04-18T08:28:31.371Z,6.60
2018-04-18T08:29:31.383Z,8.50
2018-04-18T08:30:31.400Z,8.80
2018-04-18T08:31:31.418Z,7.80
2018-04-18T08:32:31.435Z,7.50
2018-04-18T08:33:31.456Z,7.70
2018-04-18T08:34:31.473Z,7.80
2018-04-18T08:35:31.486Z,7.40
2018-04-18T08:36:31.504Z,7.30
2018-04-18T08:37:31.522Z,7.20
2018-04-18T08:38:31.542Z,7.00
2018-04-18T08:39:31.556Z,7.40
2018-04-18T08:40:31.575Z,7.90
2018-04-18T08:41:31.594Z,7.20
2018-04-18T08:42:31.612Z,7.30
2018-04-18T08:43:31.626Z,6.70
2018-04-18T08:44:31.643Z,7.50
2018-04-18T08:45:31.665Z,8.30
2018-04-18T08:46:31.684Z,7.50
2018-04-18T08:47:31.699Z,7.50
2018-04-18T08:48:31.716Z,7.90
2018-04-18T08:49:31.733Z,7.70
2018-04-18T08:50:31.753Z,6.80
2018-04-18T08:51:31.772Z,7.40
2018-04-18T08:52:31.793Z,7.50
2018-04-18T08:53:31.810Z,8.00
2018-04-18T08:54:31.827Z,7.50
2018-04-18T08:55:31.847Z,7.30
2018-04-18T08:56:31.868Z,6.90
2018-04-18T08:57:31.884Z,6.80
2018-04-18T08:58:31.904Z,7.30
2018-04-18T08:59:31.926Z,7.00
2018-04-18T09:00:31.944Z,6.50
2018-04-18T09:01:31.959Z,7.70
2018-04-18T09:02:31.978Z,6.80
2018-04-18T09:03:32.003Z,7.80
2018-04-18T09:04:32.021Z,7.10
2018-04-18T09:05:32.036Z,6.50
2018-04-18T09:06:32.055Z,6.80
2018-04-18T09:07:32.074Z,6.90
2018-04-18T09:08:32.095Z,6.60
2018-04-18T09:09:32.114Z,6.30
2018-04-18T09:10:32.131Z,6.40
2018-04-18T09:11:32.153Z,6.80
2018-04-18T09:12:32.171Z,6.10
2018-04-18T09:13:32.193Z,6.10
2018-04-18T09:14:32.213Z,6.30
2018-04-18T09:15:32.228Z,6.90
2018-04-18T09:16:32.248Z,6.10
2018-04-18T09:17:32.269Z,6.30
2018-04-18T09:18:32.290Z,10.70
2018-04-18T09:19:32.303Z,185.20
2018-04-18T09:20:32.323Z,18.40
2018-04-18T09:21:32.341Z,11.80
2018-04-18T09:22:32.360Z,8.50
2018-04-18T09:23:32.378Z,7.00
2018-04-18T09:24:32.398Z,6.40
2018-04-18T09:25:32.417Z,6.40
2018-04-18T09:26:32.435Z,6.50
2018-04-18T09:27:32.455Z,6.60
2018-04-18T09:28:32.520Z,6.50
2018-04-18T09:29:32.492Z,6.50
2018-04-18T09:30:32.512Z,21.00
2018-04-18T09:31:32.536Z,9.50
2018-04-18T09:32:32.555Z,6.70
2018-04-18T09:33:32.570Z,6.80
2018-04-18T09:34:32.591Z,6.80
2018-04-18T09:35:32.615Z,6.70
2018-04-18T09:36:32.634Z,6.70
2018-04-18T09:37:32.649Z,7.00
2018-04-18T09:38:32.670Z,7.20
2018-04-18T09:39:32.692Z,7.00
2018-04-18T09:40:32.710Z,6.80
2018-04-18T09:41:32.730Z,6.60
2018-04-18T09:42:32.751Z,6.70
2018-04-18T09:43:32.775Z,6.70
2018-04-18T09:44:32.795Z,7.00
2018-04-18T09:45:32.815Z,7.00
2018-04-18T09:46:32.839Z,6.70
2018-04-18T09:47:32.853Z,6.70
2018-04-18T09:48:32.873Z,6.70
2018-04-18T09:49:32.893Z,7.40
2018-04-18T09:50:32.912Z,6.60
2018-04-18T09:51:32.939Z,7.10
2018-04-18T09:52:32.954Z,10.30
2018-04-18T09:53:32.972Z,11.60
2018-04-18T09:54:32.996Z,6.80
2018-04-18T09:55:33.023Z,7.00
2018-04-18T09:56:33.039Z,6.80
2018-04-18T09:57:33.058Z,7.60
2018-04-18T09:58:33.143Z,7.80
2018-04-18T09:59:33.095Z,7.60
2018-04-18T10:00:33.116Z,7.70
2018-04-18T10:01:33.136Z,7.70
2018-04-18T10:02:33.154Z,6.80
2018-04-18T10:03:33.211Z,7.40
2018-04-18T10:04:33.196Z,6.50
2018-04-18T10:05:33.216Z,6.50
2018-04-18T10:06:33.237Z,6.60
2018-04-18T10:07:33.257Z,6.40
2018-04-18T10:08:33.277Z,6.90
2018-04-18T10:09:33.301Z,6.50
2018-04-18T10:10:33.322Z,7.20
2018-04-18T10:11:33.339Z,7.20
2018-04-18T10:12:33.360Z,6.80
2018-04-18T10:13:33.380Z,6.60
2018-04-18T10:14:33.402Z,6.30
2018-04-18T10:15:33.466Z,7.10
2018-04-18T10:16:33.446Z,7.10
2018-04-18T10:17:33.465Z,7.60
2018-04-18T10:18:33.483Z,7.50
2018-04-18T10:19:33.507Z,7.80
2018-04-18T10:20:33.524Z,7.50
2018-04-18T10:21:33.545Z,8.30
2018-04-18T10:22:33.566Z,7.90
2018-04-18T10:23:33.590Z,7.80
2018-04-18T10:24:33.606Z,7.90
2018-04-18T10:25:33.626Z,8.30
2018-04-18T10:26:33.647Z,7.30
2018-04-18T10:27:33.671Z,8.00
2018-04-18T10:28:33.696Z,7.90
2018-04-18T10:29:33.712Z,8.50
2018-04-18T10:30:33.732Z,7.80
2018-04-18T10:31:33.759Z,7.10
2018-04-18T10:32:33.769Z,8.00
2018-04-18T10:33:33.790Z,8.10
2018-04-18T10:34:33.826Z,7.80
2018-04-18T10:35:33.830Z,7.80
2018-04-18T10:36:33.852Z,7.40
2018-04-18T10:37:33.871Z,9.30
2018-04-18T10:38:33.891Z,7.90
2018-04-18T10:39:33.913Z,8.90
2018-04-18T10:40:33.933Z,9.10
2018-04-18T10:41:33.957Z,9.60
2018-04-18T10:42:33.976Z,9.00
2018-04-18T10:43:33.992Z,8.90
2018-04-18T10:44:34.012Z,9.90
2018-04-18T10:45:34.031Z,9.90
2018-04-18T10:46:34.052Z,10.20
2018-04-18T10:47:34.076Z,10.10
2018-04-18T10:48:34.097Z,10.10
2018-04-18T10:49:34.111Z,11.00
2018-04-18T10:50:34.128Z,10.40
2018-04-18T10:51:34.148Z,11.30
2018-04-18T10:52:34.167Z,11.00
2018-04-18T10:53:34.186Z,10.60
2018-04-18T10:54:34.203Z,9.90
2018-04-18T10:55:34.222Z,11.00
2018-04-18T10:56:34.241Z,11.40
2018-04-18T10:57:34.259Z,11.50
2018-04-18T10:58:34.346Z,11.60
2018-04-18T10:59:34.298Z,10.40
2018-04-18T11:00:34.316Z,10.10
2018-04-18T11:01:34.333Z,10.40
2018-04-18T11:02:34.353Z,10.30
2018-04-18T11:03:34.367Z,9.90
2018-04-18T11:04:34.385Z,10.50
2018-04-18T11:05:34.403Z,10.90
2018-04-18T11:06:34.421Z,11.50
2018-04-18T11:07:34.438Z,11.10
2018-04-18T11:08:34.457Z,11.30
2018-04-18T11:09:34.476Z,11.00
2018-04-18T11:10:34.493Z,11.00
2018-04-18T11:11:34.510Z,11.40
2018-04-18T11:12:34.529Z,12.00
2018-04-18T11:13:34.555Z,11.40
2018-04-18T11:14:34.568Z,11.70
2018-04-18T11:15:34.582Z,11.70
2018-04-18T11:16:34.599Z,11.30
2018-04-18T11:17:34.616Z,11.30
2018-04-18T11:18:34.634Z,11.40
2018-04-18T11:19:34.656Z,12.60
2018-04-18T11:20:34.673Z,12.40
2018-04-18T11:21:34.685Z,13.90
2018-04-18T11:22:34.703Z,13.60
2018-04-18T11:23:34.719Z,11.90
2018-04-18T11:24:34.737Z,12.50
2018-04-18T11:25:34.751Z,13.00
2018-04-18T11:26:34.769Z,13.10
2018-04-18T11:27:34.784Z,14.80
2018-04-18T11:28:34.799Z,14.70
2018-04-18T11:29:34.811Z,13.70
2018-04-18T11:30:34.826Z,13.20
2018-04-18T11:31:34.852Z,13.60
2018-04-18T11:32:34.860Z,14.60
2018-04-18T11:33:34.873Z,13.70
2018-04-18T11:34:34.886Z,12.90
2018-04-18T11:35:34.897Z,14.10
2018-04-18T11:36:34.910Z,15.80
2018-04-18T11:37:34.920Z,15.30
2018-04-18T11:38:34.931Z,13.60
2018-04-18T11:39:34.944Z,15.20
2018-04-18T11:40:34.956Z,16.80
2018-04-18T11:41:34.970Z,15.40
2018-04-18T11:42:34.980Z,14.30
2018-04-18T11:43:34.988Z,14.50
2018-04-18T11:44:35.000Z,14.90
2018-04-18T11:45:35.017Z,15.60
2018-04-18T11:46:35.023Z,14.10
2018-04-18T11:47:35.032Z,14.30
2018-04-18T11:48:35.044Z,14.40
2018-04-18T11:49:35.048Z,15.70
2018-04-18T11:50:35.057Z,15.30
2018-04-18T11:51:35.068Z,16.30
2018-04-18T11:52:35.080Z,16.70
2018-04-18T11:53:35.089Z,15.90
2018-04-18T11:54:35.097Z,16.60
2018-04-18T11:55:35.103Z,17.10
2018-04-18T11:56:35.114Z,17.10
2018-04-18T11:57:35.134Z,16.80
2018-04-18T11:58:35.131Z,17.40
2018-04-18T11:59:35.137Z,18.20
2018-04-18T12:00:35.145Z,17.30
2018-04-18T12:01:35.160Z,17.50
2018-04-18T12:02:35.161Z,17.20
2018-04-18T12:03:35.168Z,18.20
2018-04-18T12:04:35.177Z,17.00
2018-04-18T12:05:35.185Z,18.10
2018-04-18T12:06:35.191Z,18.00
2018-04-18T12:07:35.199Z,17.90
2018-04-18T12:08:35.208Z,18.00
2018-04-18T12:09:35.214Z,18.60
2018-04-18T12:10:35.222Z,17.70
2018-04-18T12:11:35.242Z,17.40
2018-04-18T12:12:35.243Z,17.60
2018-04-18T12:13:35.243Z,17.70
2018-04-18T12:14:35.252Z,17.70
2018-04-18T12:15:35.264Z,17.90
2018-04-18T12:16:35.271Z,16.90
2018-04-18T12:17:35.275Z,18.00
2018-04-18T12:18:35.282Z,18.20
2018-04-18T12:19:35.289Z,18.20
2018-04-18T12:20:35.358Z,18.30
2018-04-18T12:21:35.305Z,18.50
2018-04-18T12:22:35.309Z,18.50
2018-04-18T12:23:35.316Z,18.80
2018-04-18T12:24:35.324Z,17.00
2018-04-18T12:25:35.335Z,17.90
2018-04-18T12:26:35.342Z,15.50
2018-04-18T12:27:35.344Z,16.70
2018-04-18T12:28:35.352Z,19.40
2018-04-18T12:29:35.361Z,18.50
2018-04-18T12:30:35.369Z,18.60
2018-04-18T12:31:35.371Z,18.50
2018-04-18T12:32:35.378Z,18.60
2018-04-18T12:33:35.385Z,18.40
2018-04-18T12:34:35.392Z,20.20
2018-04-18T12:35:35.399Z,19.30
2018-04-18T12:36:35.407Z,19.30
2018-04-18T12:37:35.414Z,20.40
2018-04-18T12:38:35.421Z,20.00
2018-04-18T12:39:35.427Z,19.00
2018-04-18T12:40:35.435Z,19.70
2018-04-18T12:41:35.444Z,19.00
2018-04-18T12:42:35.451Z,20.70
2018-04-18T12:43:35.458Z,19.30
2018-04-18T12:44:35.465Z,19.50
2018-04-18T12:45:35.467Z,19.90
2018-04-18T12:46:35.473Z,20.30
2018-04-18T12:47:35.485Z,20.90
2018-04-18T12:48:35.492Z,21.50
2018-04-18T12:49:35.494Z,21.50
2018-04-18T12:50:35.500Z,20.40
2018-04-18T12:51:35.507Z,20.90
2018-04-18T12:52:35.514Z,21.30
2018-04-18T12:53:35.519Z,20.50
2018-04-18T12:54:35.526Z,22.40
2018-04-18T12:55:35.537Z,21.90
2018-04-18T12:56:35.543Z,21.10
2018-04-18T12:57:35.553Z,21.70
2018-04-18T12:58:35.552Z,22.40
2018-04-18T12:59:35.558Z,22.90